Nearby METAR Reports

 

KBMG - Bloomington, Indiana, USA
Distance from station: SSE 11mi, 18km
Updated: Mon, 18-Oct-2021 9:53pm EDT
Clear
Clear
 Wind from calm
Wind: Calm
Temperature: 50°F , 10°C
Dew Point: 46°F , 8°C
Humidity: 88%
Barometer: 30.15 inHg , 1021 hPa
Clouds: Clear
Visibility: 10 miles , 16 km
2021/10/19 01:53 KBMG 190153Z AUTO 00000KT 10SM CLR 10/08 A3015 RMK AO2 SLP211 T01000078
KGPC - Greencastle, Indiana, USA
Distance from station: NNW 24mi, 39km
Updated: Mon, 18-Oct-2021 9:55pm EDT
Clear
Clear
 Wind from S
Wind: S 5 mph , 7 km/h
Temperature: 50°F , 10°C
Wind Chill: 48°F , 9°C
Dew Point: 46°F , 8°C
Humidity: 88%
Barometer: 30.15 inHg , 1021 hPa
Clouds: Clear
Visibility: 10 miles , 16 km
2021/10/19 01:55 KGPC 190155Z AUTO 19004KT 10SM CLR 10/08 A3015 RMK AO2 T01040084
 
KHUF - Terre Haute, Indiana, USA
Distance from station: WNW 34mi, 54km
Updated: Mon, 18-Oct-2021 9:53pm EDT
Clear
Clear
 Wind from calm
Wind: Calm
Temperature: 50°F , 10°C
Dew Point: 46°F , 8°C
Humidity: 88%
Barometer: 30.14 inHg , 1020.7 hPa
Clouds: Clear
Visibility: 10 miles , 16 km
2021/10/19 01:53 KHUF 190153Z 00000KT 10SM CLR 10/08 A3014 RMK AO2 SLP207 T01000078
KIND - Indianapolis, Indiana, USA
Distance from station: NE 36mi, 58km
Updated: Mon, 18-Oct-2021 9:54pm EDT
Clear
Clear
 Wind from SSW
Wind: SSW 5 mph , 7 km/h
Temperature: 54°F , 12°C
Dew Point: 45°F , 7°C
Humidity: 72%
Barometer: 30.14 inHg , 1020.7 hPa
Clouds: Clear
Visibility: 10 miles , 16 km
2021/10/19 01:54 KIND 190154Z 20004KT 10SM CLR 12/07 A3014 RMK AO2 SLP208 T01220067
 
KHFY - Indianapolis, Indiana, USA
Distance from station: NE 40mi, 65km
Updated: Thu, 05-Aug-2021 10:15am EDT
NOT Current
Clear
Clear
 Wind from calm
Wind: Calm
Temperature: 75°F , 24°C
Dew Point: 59°F , 15°C
Humidity: 57%
Barometer: 30.17 inHg , 1021.7 hPa
Clouds: Clear
Visibility: 10 miles , 16 km
2021/08/05 14:15 KHFY 051415Z AUTO 00000KT 10SM CLR 24/15 A3017 RMK AO2 T02350146
KBAK - Columbus/Balkala, Indiana, USA
Distance from station: E 43mi, 69km
Updated: Mon, 18-Oct-2021 9:45pm EDT
Clear
Clear
 Wind from calm
Wind: Calm
Temperature: 48°F , 9°C
Dew Point: 45°F , 7°C
Humidity: 87%
Barometer: 30.17 inHg , 1021.7 hPa
Clouds: Clear
Visibility: 10 miles , 16 km
2021/10/19 01:45 KBAK 190145Z 00000KT 10SM CLR 09/07 A3017
 
KEYE - Indianapolis, Indiana, USA
Distance from station: NNE 43mi, 69km
Updated: Mon, 18-Oct-2021 9:53pm EDT
Clear
Clear
 Wind from calm
Wind: Calm
Temperature: 54°F , 12°C
Barometer: 30.14 inHg , 1020.7 hPa
Clouds: Clear
Visibility: 10 miles , 16 km
2021/10/19 01:53 KEYE 190153Z AUTO 00000KT 10SM CLR 12/ A3014 RMK AO2 SLP205 T0117 $
KDCY - Daviess County, Indiana, USA
Distance from station: SSW 47mi, 76km
Updated: Mon, 18-Oct-2021 9:55pm EDT
Clear
Clear
 Wind from calm
Wind: Calm
Temperature: 50°F , 10°C
Dew Point: 45°F , 7°C
Humidity: 82%
Barometer: 30.15 inHg , 1021 hPa
Clouds: Clear
Visibility: 10 miles , 16 km
2021/10/19 01:55 KDCY 190155Z AUTO 00000KT 10SM CLR 10/07 A3015 RMK AO2 T01020070
 
KCFJ - Crawfordsville, Indiana, USA
Distance from station: NNW 49mi, 78km
Updated: Mon, 18-Oct-2021 10:15pm EDT
Clear
Clear
 Wind from calm
Wind: Calm
Temperature: 48°F , 9°C
Dew Point: 41°F , 5°C
Humidity: 76%
Barometer: 30.14 inHg , 1020.7 hPa
Clouds: Clear
Visibility: 10 miles , 16 km
2021/10/19 02:15 KCFJ 190215Z AUTO 00000KT 10SM CLR 09/05 A3014 RMK AO2 T00870045